Terminal Aerodrome Forecast
Issued by NWS

Home | Current Version | Previous Version | Text Only | Print | Product List | Glossary On
Versions: 1 2 3 4 5 6 7 8 9 10 11 12 13 14 15
077
FTUS43 KIND 201123
TAFHUF
TAF
KHUF 201123Z 2012/2112 VRB03KT 5SM BR BCFG SCT070 BKN200
     FM201300 VRB04KT P6SM SCT070 BKN200
     FM201500 VRB04KT P6SM VCSH SCT050 BKN120
     FM201800 25005KT P6SM SCT060 BKN250
     FM202000 27005KT P6SM VCTS SCT050CB BKN130 PROB30 2021/2023 4SM
      -TSRA BKN050CB=

USA.gov is the U.S. government's official web portal to all federal, state and local government web resources and services.